sensor_id;sensor_type;location;lat;lon;timestamp;P1;durP1;ratioP1;P2;durP2;ratioP2
73168;SDS011;61379;59.732;30.468;2023-07-16T00:02:07;7.38;;;6.78;;
73168;SDS011;61379;59.732;30.468;2023-07-16T00:04:34;7.32;;;6.63;;
73168;SDS011;61379;59.732;30.468;2023-07-16T00:07:00;7.75;;;7.15;;
73168;SDS011;61379;59.732;30.468;2023-07-16T00:09:26;8.38;;;7.45;;
73168;SDS011;61379;59.732;30.468;2023-07-16T00:11:52;8.30;;;7.45;;
73168;SDS011;61379;59.732;30.468;2023-07-16T00:14:18;7.55;;;6.82;;
73168;SDS011;61379;59.732;30.468;2023-07-16T00:16:44;7.85;;;6.65;;
73168;SDS011;61379;59.732;30.468;2023-07-16T00:19:11;7.20;;;6.57;;
73168;SDS011;61379;59.732;30.468;2023-07-16T00:21:38;6.72;;;6.13;;
73168;SDS011;61379;59.732;30.468;2023-07-16T00:24:04;8.13;;;7.32;;
73168;SDS011;61379;59.732;30.468;2023-07-16T00:26:30;7.93;;;7.32;;
73168;SDS011;61379;59.732;30.468;2023-07-16T00:28:56;7.93;;;7.20;;
73168;SDS011;61379;59.732;30.468;2023-07-16T00:31:22;8.20;;;7.07;;
73168;SDS011;61379;59.732;30.468;2023-07-16T00:33:48;7.47;;;6.85;;
73168;SDS011;61379;59.732;30.468;2023-07-16T00:36:14;7.80;;;6.53;;
73168;SDS011;61379;59.732;30.468;2023-07-16T00:38:41;7.22;;;6.63;;
73168;SDS011;61379;59.732;30.468;2023-07-16T00:41:08;8.00;;;7.25;;
73168;SDS011;61379;59.732;30.468;2023-07-16T00:43:34;8.48;;;7.63;;
73168;SDS011;61379;59.732;30.468;2023-07-16T00:46:00;7.07;;;6.57;;
73168;SDS011;61379;59.732;30.468;2023-07-16T00:48:26;9.40;;;7.30;;
73168;SDS011;61379;59.732;30.468;2023-07-16T00:50:52;7.35;;;6.53;;
73168;SDS011;61379;59.732;30.468;2023-07-16T00:53:19;7.00;;;6.28;;
73168;SDS011;61379;59.732;30.468;2023-07-16T00:55:46;7.85;;;6.75;;
73168;SDS011;61379;59.732;30.468;2023-07-16T00:58:12;7.40;;;6.72;;
73168;SDS011;61379;59.732;30.468;2023-07-16T01:00:39;7.65;;;6.95;;
73168;SDS011;61379;59.732;30.468;2023-07-16T01:03:06;8.30;;;6.22;;
73168;SDS011;61379;59.732;30.468;2023-07-16T01:05:34;7.60;;;6.78;;
73168;SDS011;61379;59.732;30.468;2023-07-16T01:08:02;6.40;;;5.75;;
73168;SDS011;61379;59.732;30.468;2023-07-16T01:10:29;9.15;;;7.03;;
73168;SDS011;61379;59.732;30.468;2023-07-16T01:12:57;9.35;;;6.75;;
73168;SDS011;61379;59.732;30.468;2023-07-16T01:15:23;9.88;;;7.15;;
73168;SDS011;61379;59.732;30.468;2023-07-16T01:17:49;8.15;;;6.07;;
73168;SDS011;61379;59.732;30.468;2023-07-16T01:20:15;7.35;;;6.65;;
73168;SDS011;61379;59.732;30.468;2023-07-16T01:22:46;10.32;;;6.82;;
73168;SDS011;61379;59.732;30.468;2023-07-16T01:25:20;10.10;;;7.00;;
73168;SDS011;61379;59.732;30.468;2023-07-16T01:27:57;7.25;;;6.55;;
73168;SDS011;61379;59.732;30.468;2023-07-16T01:30:25;9.23;;;7.35;;
73168;SDS011;61379;59.732;30.468;2023-07-16T01:32:51;7.82;;;7.10;;
73168;SDS011;61379;59.732;30.468;2023-07-16T01:35:18;9.38;;;7.80;;
73168;SDS011;61379;59.732;30.468;2023-07-16T01:37:44;8.48;;;7.53;;
73168;SDS011;61379;59.732;30.468;2023-07-16T01:40:11;8.52;;;7.35;;
73168;SDS011;61379;59.732;30.468;2023-07-16T01:42:37;8.63;;;7.82;;
73168;SDS011;61379;59.732;30.468;2023-07-16T01:45:03;8.65;;;7.63;;
73168;SDS011;61379;59.732;30.468;2023-07-16T01:47:34;9.15;;;7.53;;
73168;SDS011;61379;59.732;30.468;2023-07-16T01:50:05;10.25;;;7.30;;
73168;SDS011;61379;59.732;30.468;2023-07-16T01:52:31;7.88;;;6.50;;
73168;SDS011;61379;59.732;30.468;2023-07-16T01:54:57;8.52;;;6.90;;
73168;SDS011;61379;59.732;30.468;2023-07-16T01:57:23;9.40;;;7.30;;
73168;SDS011;61379;59.732;30.468;2023-07-16T01:59:49;8.60;;;7.57;;
73168;SDS011;61379;59.732;30.468;2023-07-16T02:02:15;7.40;;;6.68;;
73168;SDS011;61379;59.732;30.468;2023-07-16T02:04:42;7.00;;;6.32;;
73168;SDS011;61379;59.732;30.468;2023-07-16T02:07:08;6.90;;;6.30;;
73168;SDS011;61379;59.732;30.468;2023-07-16T02:09:34;7.28;;;6.75;;
73168;SDS011;61379;59.732;30.468;2023-07-16T02:12:00;8.07;;;7.38;;
73168;SDS011;61379;59.732;30.468;2023-07-16T02:14:26;9.23;;;7.57;;
73168;SDS011;61379;59.732;30.468;2023-07-16T02:16:53;8.45;;;6.93;;
73168;SDS011;61379;59.732;30.468;2023-07-16T02:19:19;7.40;;;6.72;;
73168;SDS011;61379;59.732;30.468;2023-07-16T02:21:46;9.57;;;7.10;;
73168;SDS011;61379;59.732;30.468;2023-07-16T02:24:12;7.75;;;7.05;;
73168;SDS011;61379;59.732;30.468;2023-07-16T02:26:39;7.72;;;7.13;;
73168;SDS011;61379;59.732;30.468;2023-07-16T02:29:05;7.75;;;7.03;;
73168;SDS011;61379;59.732;30.468;2023-07-16T02:31:34;7.43;;;6.78;;
73168;SDS011;61379;59.732;30.468;2023-07-16T02:34:00;7.25;;;6.65;;
73168;SDS011;61379;59.732;30.468;2023-07-16T02:36:26;7.72;;;6.97;;
73168;SDS011;61379;59.732;30.468;2023-07-16T02:38:52;8.05;;;7.45;;
73168;SDS011;61379;59.732;30.468;2023-07-16T02:41:18;7.65;;;6.95;;
73168;SDS011;61379;59.732;30.468;2023-07-16T02:43:45;8.68;;;7.95;;
73168;SDS011;61379;59.732;30.468;2023-07-16T02:46:11;7.32;;;6.82;;
73168;SDS011;61379;59.732;30.468;2023-07-16T02:48:37;7.88;;;7.28;;
73168;SDS011;61379;59.732;30.468;2023-07-16T02:51:03;7.60;;;7.00;;
73168;SDS011;61379;59.732;30.468;2023-07-16T02:53:29;7.47;;;6.78;;
73168;SDS011;61379;59.732;30.468;2023-07-16T02:55:55;8.75;;;7.95;;
73168;SDS011;61379;59.732;30.468;2023-07-16T02:58:21;8.30;;;7.70;;
73168;SDS011;61379;59.732;30.468;2023-07-16T03:00:47;7.65;;;7.05;;
73168;SDS011;61379;59.732;30.468;2023-07-16T03:03:13;8.07;;;7.47;;
73168;SDS011;61379;59.732;30.468;2023-07-16T03:05:40;8.68;;;8.07;;
73168;SDS011;61379;59.732;30.468;2023-07-16T03:08:06;8.02;;;7.32;;
73168;SDS011;61379;59.732;30.468;2023-07-16T03:10:32;7.75;;;7.15;;
73168;SDS011;61379;59.732;30.468;2023-07-16T03:12:58;8.38;;;7.63;;
73168;SDS011;61379;59.732;30.468;2023-07-16T03:15:24;7.97;;;7.38;;
73168;SDS011;61379;59.732;30.468;2023-07-16T03:17:51;6.90;;;6.40;;
73168;SDS011;61379;59.732;30.468;2023-07-16T03:20:17;8.10;;;6.68;;
73168;SDS011;61379;59.732;30.468;2023-07-16T03:22:43;7.72;;;7.13;;
73168;SDS011;61379;59.732;30.468;2023-07-16T03:25:09;8.30;;;7.72;;
73168;SDS011;61379;59.732;30.468;2023-07-16T03:27:35;8.40;;;7.70;;
73168;SDS011;61379;59.732;30.468;2023-07-16T03:30:02;7.28;;;6.78;;
73168;SDS011;61379;59.732;30.468;2023-07-16T03:32:32;7.72;;;7.03;;
73168;SDS011;61379;59.732;30.468;2023-07-16T03:34:58;7.85;;;7.15;;
73168;SDS011;61379;59.732;30.468;2023-07-16T03:37:24;7.45;;;6.88;;
73168;SDS011;61379;59.732;30.468;2023-07-16T03:39:51;7.22;;;6.63;;
73168;SDS011;61379;59.732;30.468;2023-07-16T03:42:17;6.93;;;6.43;;
73168;SDS011;61379;59.732;30.468;2023-07-16T03:44:43;7.50;;;6.95;;
73168;SDS011;61379;59.732;30.468;2023-07-16T03:47:09;7.72;;;7.13;;
73168;SDS011;61379;59.732;30.468;2023-07-16T03:49:35;7.53;;;6.93;;
73168;SDS011;61379;59.732;30.468;2023-07-16T03:52:01;7.68;;;7.07;;
73168;SDS011;61379;59.732;30.468;2023-07-16T03:54:28;7.40;;;6.90;;
73168;SDS011;61379;59.732;30.468;2023-07-16T03:56:54;7.88;;;7.13;;
73168;SDS011;61379;59.732;30.468;2023-07-16T03:59:20;7.68;;;7.07;;
73168;SDS011;61379;59.732;30.468;2023-07-16T04:01:46;7.70;;;7.10;;
73168;SDS011;61379;59.732;30.468;2023-07-16T04:04:13;7.07;;;6.47;;
73168;SDS011;61379;59.732;30.468;2023-07-16T04:06:39;7.07;;;6.47;;
73168;SDS011;61379;59.732;30.468;2023-07-16T04:09:05;7.35;;;6.75;;
73168;SDS011;61379;59.732;30.468;2023-07-16T04:11:31;7.82;;;7.22;;
73168;SDS011;61379;59.732;30.468;2023-07-16T04:13:57;7.60;;;6.57;;
73168;SDS011;61379;59.732;30.468;2023-07-16T04:16:23;7.32;;;6.45;;
73168;SDS011;61379;59.732;30.468;2023-07-16T04:18:49;7.90;;;6.95;;
73168;SDS011;61379;59.732;30.468;2023-07-16T04:21:16;7.65;;;7.03;;
73168;SDS011;61379;59.732;30.468;2023-07-16T04:23:42;7.00;;;6.22;;
73168;SDS011;61379;59.732;30.468;2023-07-16T04:26:08;7.32;;;6.00;;
73168;SDS011;61379;59.732;30.468;2023-07-16T04:28:34;6.95;;;6.35;;
73168;SDS011;61379;59.732;30.468;2023-07-16T04:31:00;8.32;;;7.57;;
73168;SDS011;61379;59.732;30.468;2023-07-16T04:33:26;6.93;;;6.35;;
73168;SDS011;61379;59.732;30.468;2023-07-16T04:35:52;7.65;;;6.70;;
73168;SDS011;61379;59.732;30.468;2023-07-16T04:38:19;10.10;;;7.90;;
73168;SDS011;61379;59.732;30.468;2023-07-16T04:40:45;8.73;;;7.93;;
73168;SDS011;61379;59.732;30.468;2023-07-16T04:43:11;9.13;;;8.23;;
73168;SDS011;61379;59.732;30.468;2023-07-16T04:45:37;7.78;;;7.05;;
73168;SDS011;61379;59.732;30.468;2023-07-16T04:48:05;7.32;;;6.65;;
73168;SDS011;61379;59.732;30.468;2023-07-16T04:50:31;8.98;;;8.27;;
73168;SDS011;61379;59.732;30.468;2023-07-16T04:52:57;8.60;;;7.80;;
73168;SDS011;61379;59.732;30.468;2023-07-16T04:55:23;7.97;;;7.28;;
73168;SDS011;61379;59.732;30.468;2023-07-16T04:57:50;7.93;;;7.22;;
73168;SDS011;61379;59.732;30.468;2023-07-16T05:00:18;7.85;;;7.15;;
73168;SDS011;61379;59.732;30.468;2023-07-16T05:02:44;8.65;;;7.80;;
73168;SDS011;61379;59.732;30.468;2023-07-16T05:05:11;8.60;;;7.80;;
73168;SDS011;61379;59.732;30.468;2023-07-16T05:07:37;12.27;;;9.32;;
73168;SDS011;61379;59.732;30.468;2023-07-16T05:10:03;17.48;;;9.85;;
73168;SDS011;61379;59.732;30.468;2023-07-16T05:12:30;13.63;;;9.88;;
73168;SDS011;61379;59.732;30.468;2023-07-16T05:14:57;17.23;;;9.57;;
73168;SDS011;61379;59.732;30.468;2023-07-16T05:17:23;14.75;;;8.93;;
73168;SDS011;61379;59.732;30.468;2023-07-16T05:19:49;11.90;;;8.48;;
73168;SDS011;61379;59.732;30.468;2023-07-16T05:22:15;13.77;;;8.93;;
73168;SDS011;61379;59.732;30.468;2023-07-16T05:24:41;11.50;;;8.85;;
73168;SDS011;61379;59.732;30.468;2023-07-16T05:27:07;10.45;;;7.95;;
73168;SDS011;61379;59.732;30.468;2023-07-16T05:29:33;8.75;;;7.57;;
73168;SDS011;61379;59.732;30.468;2023-07-16T05:31:59;8.45;;;7.30;;
73168;SDS011;61379;59.732;30.468;2023-07-16T05:34:25;8.40;;;7.45;;
73168;SDS011;61379;59.732;30.468;2023-07-16T05:36:53;8.60;;;6.82;;
73168;SDS011;61379;59.732;30.468;2023-07-16T05:39:19;7.63;;;6.95;;
73168;SDS011;61379;59.732;30.468;2023-07-16T05:41:45;8.13;;;7.28;;
73168;SDS011;61379;59.732;30.468;2023-07-16T05:44:11;7.95;;;7.35;;
73168;SDS011;61379;59.732;30.468;2023-07-16T05:46:37;7.90;;;7.30;;
73168;SDS011;61379;59.732;30.468;2023-07-16T05:49:03;7.55;;;6.85;;
73168;SDS011;61379;59.732;30.468;2023-07-16T05:51:29;7.70;;;7.15;;
73168;SDS011;61379;59.732;30.468;2023-07-16T05:53:56;7.90;;;7.03;;
73168;SDS011;61379;59.732;30.468;2023-07-16T05:56:22;8.10;;;7.40;;
73168;SDS011;61379;59.732;30.468;2023-07-16T05:58:48;7.72;;;7.03;;
73168;SDS011;61379;59.732;30.468;2023-07-16T06:01:14;8.00;;;7.30;;
73168;SDS011;61379;59.732;30.468;2023-07-16T06:03:40;8.07;;;7.47;;
73168;SDS011;61379;59.732;30.468;2023-07-16T06:06:08;7.18;;;6.70;;
73168;SDS011;61379;59.732;30.468;2023-07-16T06:08:34;7.55;;;7.03;;
73168;SDS011;61379;59.732;30.468;2023-07-16T06:11:00;9.57;;;7.43;;
73168;SDS011;61379;59.732;30.468;2023-07-16T06:13:26;8.35;;;7.65;;
73168;SDS011;61379;59.732;30.468;2023-07-16T06:15:52;7.70;;;7.10;;
73168;SDS011;61379;59.732;30.468;2023-07-16T06:18:18;8.38;;;7.00;;
73168;SDS011;61379;59.732;30.468;2023-07-16T06:20:45;6.82;;;6.25;;
73168;SDS011;61379;59.732;30.468;2023-07-16T06:23:11;7.18;;;6.50;;
73168;SDS011;61379;59.732;30.468;2023-07-16T06:25:37;7.85;;;7.13;;
73168;SDS011;61379;59.732;30.468;2023-07-16T06:28:05;6.70;;;6.10;;
73168;SDS011;61379;59.732;30.468;2023-07-16T06:30:31;7.65;;;6.97;;
73168;SDS011;61379;59.732;30.468;2023-07-16T06:32:59;7.68;;;7.07;;
73168;SDS011;61379;59.732;30.468;2023-07-16T06:35:25;7.30;;;6.70;;
73168;SDS011;61379;59.732;30.468;2023-07-16T06:37:52;7.57;;;6.97;;
73168;SDS011;61379;59.732;30.468;2023-07-16T06:40:18;7.10;;;6.60;;
73168;SDS011;61379;59.732;30.468;2023-07-16T06:42:45;7.50;;;6.78;;
73168;SDS011;61379;59.732;30.468;2023-07-16T06:45:11;8.63;;;7.22;;
73168;SDS011;61379;59.732;30.468;2023-07-16T06:47:37;7.13;;;6.63;;
73168;SDS011;61379;59.732;30.468;2023-07-16T06:50:04;6.75;;;6.35;;
73168;SDS011;61379;59.732;30.468;2023-07-16T06:52:31;7.13;;;6.43;;
73168;SDS011;61379;59.732;30.468;2023-07-16T06:54:57;7.03;;;6.53;;
73168;SDS011;61379;59.732;30.468;2023-07-16T06:57:23;8.57;;;7.75;;
73168;SDS011;61379;59.732;30.468;2023-07-16T06:59:49;6.97;;;6.47;;
73168;SDS011;61379;59.732;30.468;2023-07-16T07:02:16;7.25;;;6.55;;
73168;SDS011;61379;59.732;30.468;2023-07-16T07:04:42;7.03;;;6.47;;
73168;SDS011;61379;59.732;30.468;2023-07-16T07:07:08;7.47;;;6.88;;
73168;SDS011;61379;59.732;30.468;2023-07-16T07:09:34;7.50;;;6.85;;
73168;SDS011;61379;59.732;30.468;2023-07-16T07:12:00;7.18;;;6.68;;
73168;SDS011;61379;59.732;30.468;2023-07-16T07:14:27;7.30;;;6.80;;
73168;SDS011;61379;59.732;30.468;2023-07-16T07:16:53;7.60;;;7.05;;
73168;SDS011;61379;59.732;30.468;2023-07-16T07:19:19;6.82;;;6.32;;
73168;SDS011;61379;59.732;30.468;2023-07-16T07:21:45;7.10;;;6.60;;
73168;SDS011;61379;59.732;30.468;2023-07-16T07:24:11;7.38;;;6.80;;
73168;SDS011;61379;59.732;30.468;2023-07-16T07:26:38;6.72;;;6.30;;
73168;SDS011;61379;59.732;30.468;2023-07-16T07:29:04;7.63;;;6.95;;
73168;SDS011;61379;59.732;30.468;2023-07-16T07:31:30;7.60;;;7.00;;
73168;SDS011;61379;59.732;30.468;2023-07-16T07:33:57;7.60;;;7.05;;
73168;SDS011;61379;59.732;30.468;2023-07-16T07:36:24;8.05;;;7.35;;
73168;SDS011;61379;59.732;30.468;2023-07-16T07:38:50;8.07;;;7.47;;
73168;SDS011;61379;59.732;30.468;2023-07-16T07:41:16;7.95;;;7.35;;
73168;SDS011;61379;59.732;30.468;2023-07-16T07:43:42;7.70;;;6.80;;
73168;SDS011;61379;59.732;30.468;2023-07-16T07:46:09;7.43;;;6.93;;
73168;SDS011;61379;59.732;30.468;2023-07-16T07:48:35;7.75;;;7.15;;
73168;SDS011;61379;59.732;30.468;2023-07-16T07:51:01;7.68;;;7.18;;
73168;SDS011;61379;59.732;30.468;2023-07-16T07:53:27;7.95;;;7.35;;
73168;SDS011;61379;59.732;30.468;2023-07-16T07:55:53;7.38;;;6.88;;
73168;SDS011;61379;59.732;30.468;2023-07-16T07:58:20;7.53;;;7.03;;
73168;SDS011;61379;59.732;30.468;2023-07-16T08:00:46;7.78;;;7.18;;
73168;SDS011;61379;59.732;30.468;2023-07-16T08:03:12;7.80;;;7.30;;
73168;SDS011;61379;59.732;30.468;2023-07-16T08:05:38;7.68;;;7.22;;
73168;SDS011;61379;59.732;30.468;2023-07-16T08:08:04;7.65;;;7.07;;
73168;SDS011;61379;59.732;30.468;2023-07-16T08:10:31;8.02;;;7.47;;
73168;SDS011;61379;59.732;30.468;2023-07-16T08:12:57;7.93;;;7.43;;
73168;SDS011;61379;59.732;30.468;2023-07-16T08:15:23;7.65;;;7.15;;
73168;SDS011;61379;59.732;30.468;2023-07-16T08:17:49;7.68;;;6.97;;
73168;SDS011;61379;59.732;30.468;2023-07-16T08:20:16;7.55;;;7.05;;
73168;SDS011;61379;59.732;30.468;2023-07-16T08:22:42;7.90;;;7.40;;
73168;SDS011;61379;59.732;30.468;2023-07-16T08:25:08;7.72;;;7.13;;
73168;SDS011;61379;59.732;30.468;2023-07-16T08:27:34;7.68;;;7.18;;
73168;SDS011;61379;59.732;30.468;2023-07-16T08:30:00;8.18;;;7.68;;
73168;SDS011;61379;59.732;30.468;2023-07-16T08:32:31;8.32;;;7.72;;
73168;SDS011;61379;59.732;30.468;2023-07-16T08:34:58;8.98;;;8.38;;
73168;SDS011;61379;59.732;30.468;2023-07-16T08:37:24;8.50;;;7.90;;
73168;SDS011;61379;59.732;30.468;2023-07-16T08:39:51;8.52;;;8.02;;
73168;SDS011;61379;59.732;30.468;2023-07-16T08:42:17;8.57;;;8.00;;
73168;SDS011;61379;59.732;30.468;2023-07-16T08:44:43;7.57;;;7.07;;
73168;SDS011;61379;59.732;30.468;2023-07-16T08:47:09;7.57;;;7.07;;
73168;SDS011;61379;59.732;30.468;2023-07-16T08:49:35;7.97;;;7.47;;
73168;SDS011;61379;59.732;30.468;2023-07-16T08:52:02;7.55;;;7.05;;
73168;SDS011;61379;59.732;30.468;2023-07-16T08:54:28;8.30;;;7.57;;
73168;SDS011;61379;59.732;30.468;2023-07-16T08:56:54;8.45;;;7.78;;
73168;SDS011;61379;59.732;30.468;2023-07-16T08:59:21;8.70;;;8.10;;
73168;SDS011;61379;59.732;30.468;2023-07-16T09:01:48;8.85;;;8.25;;
73168;SDS011;61379;59.732;30.468;2023-07-16T09:04:14;8.32;;;7.72;;
73168;SDS011;61379;59.732;30.468;2023-07-16T09:06:40;8.77;;;8.27;;
73168;SDS011;61379;59.732;30.468;2023-07-16T09:09:06;9.50;;;8.90;;
73168;SDS011;61379;59.732;30.468;2023-07-16T09:11:33;9.10;;;8.48;;
73168;SDS011;61379;59.732;30.468;2023-07-16T09:14:01;9.95;;;9.15;;
73168;SDS011;61379;59.732;30.468;2023-07-16T09:16:31;8.63;;;8.05;;
73168;SDS011;61379;59.732;30.468;2023-07-16T09:19:04;8.77;;;8.27;;
73168;SDS011;61379;59.732;30.468;2023-07-16T09:21:30;8.73;;;8.23;;
73168;SDS011;61379;59.732;30.468;2023-07-16T09:23:59;8.27;;;7.75;;
73168;SDS011;61379;59.732;30.468;2023-07-16T09:26:25;8.75;;;8.25;;
73168;SDS011;61379;59.732;30.468;2023-07-16T09:28:52;9.23;;;8.55;;
73168;SDS011;61379;59.732;30.468;2023-07-16T09:31:18;8.27;;;7.78;;
73168;SDS011;61379;59.732;30.468;2023-07-16T09:33:46;8.00;;;7.50;;
73168;SDS011;61379;59.732;30.468;2023-07-16T09:36:12;8.90;;;8.40;;
73168;SDS011;61379;59.732;30.468;2023-07-16T09:38:38;8.63;;;8.13;;
73168;SDS011;61379;59.732;30.468;2023-07-16T09:41:04;8.48;;;7.97;;
73168;SDS011;61379;59.732;30.468;2023-07-16T09:43:31;8.05;;;7.45;;
73168;SDS011;61379;59.732;30.468;2023-07-16T09:45:59;8.43;;;7.93;;
73168;SDS011;61379;59.732;30.468;2023-07-16T09:48:25;6.95;;;4.95;;
73168;SDS011;61379;59.732;30.468;2023-07-16T09:50:52;4.25;;;1.25;;
73168;SDS011;61379;59.732;30.468;2023-07-16T09:53:19;2.28;;;0.98;;
73168;SDS011;61379;59.732;30.468;2023-07-16T09:55:45;3.70;;;1.23;;
73168;SDS011;61379;59.732;30.468;2023-07-16T09:58:12;3.03;;;1.08;;
73168;SDS011;61379;59.732;30.468;2023-07-16T10:00:38;2.55;;;2.10;;
73168;SDS011;61379;59.732;30.468;2023-07-16T10:03:06;2.83;;;0.90;;
73168;SDS011;61379;59.732;30.468;2023-07-16T10:05:35;3.75;;;1.42;;
73168;SDS011;61379;59.732;30.468;2023-07-16T10:08:02;2.10;;;1.00;;
73168;SDS011;61379;59.732;30.468;2023-07-16T10:10:37;3.47;;;1.38;;
73168;SDS011;61379;59.732;30.468;2023-07-16T10:13:04;1.63;;;0.77;;
73168;SDS011;61379;59.732;30.468;2023-07-16T10:15:32;3.65;;;3.13;;
73168;SDS011;61379;59.732;30.468;2023-07-16T10:17:58;2.25;;;0.93;;
73168;SDS011;61379;59.732;30.468;2023-07-16T10:20:29;4.90;;;1.02;;
73168;SDS011;61379;59.732;30.468;2023-07-16T10:22:55;7.30;;;1.92;;
73168;SDS011;61379;59.732;30.468;2023-07-16T10:25:25;1.60;;;0.77;;
73168;SDS011;61379;59.732;30.468;2023-07-16T10:27:52;2.75;;;0.82;;
73168;SDS011;61379;59.732;30.468;2023-07-16T10:30:18;3.58;;;1.50;;
73168;SDS011;61379;59.732;30.468;2023-07-16T10:32:45;4.38;;;1.23;;
73168;SDS011;61379;59.732;30.468;2023-07-16T10:35:12;5.68;;;2.33;;
73168;SDS011;61379;59.732;30.468;2023-07-16T10:37:39;3.45;;;0.90;;
73168;SDS011;61379;59.732;30.468;2023-07-16T10:40:06;2.45;;;1.02;;
73168;SDS011;61379;59.732;30.468;2023-07-16T10:42:35;2.47;;;1.05;;
73168;SDS011;61379;59.732;30.468;2023-07-16T10:45:02;3.10;;;0.85;;
73168;SDS011;61379;59.732;30.468;2023-07-16T10:47:33;5.90;;;2.58;;
73168;SDS011;61379;59.732;30.468;2023-07-16T10:50:00;3.20;;;1.10;;
73168;SDS011;61379;59.732;30.468;2023-07-16T10:52:27;3.78;;;2.85;;
73168;SDS011;61379;59.732;30.468;2023-07-16T10:54:54;4.93;;;0.90;;
73168;SDS011;61379;59.732;30.468;2023-07-16T10:57:20;2.50;;;0.73;;
73168;SDS011;61379;59.732;30.468;2023-07-16T10:59:46;3.72;;;1.02;;
73168;SDS011;61379;59.732;30.468;2023-07-16T11:02:14;1.80;;;0.90;;
73168;SDS011;61379;59.732;30.468;2023-07-16T11:04:41;3.00;;;1.00;;
73168;SDS011;61379;59.732;30.468;2023-07-16T11:07:08;5.45;;;1.70;;
73168;SDS011;61379;59.732;30.468;2023-07-16T11:09:34;4.88;;;1.20;;
73168;SDS011;61379;59.732;30.468;2023-07-16T11:12:07;3.70;;;1.10;;
73168;SDS011;61379;59.732;30.468;2023-07-16T11:14:33;2.70;;;1.08;;
73168;SDS011;61379;59.732;30.468;2023-07-16T11:17:03;3.22;;;1.02;;
73168;SDS011;61379;59.732;30.468;2023-07-16T11:19:30;2.42;;;0.80;;
73168;SDS011;61379;59.732;30.468;2023-07-16T11:21:56;2.00;;;0.80;;
73168;SDS011;61379;59.732;30.468;2023-07-16T11:24:22;2.35;;;1.13;;
73168;SDS011;61379;59.732;30.468;2023-07-16T11:26:51;3.45;;;1.40;;
73168;SDS011;61379;59.732;30.468;2023-07-16T11:29:18;2.05;;;0.88;;
73168;SDS011;61379;59.732;30.468;2023-07-16T11:31:44;5.07;;;1.23;;
73168;SDS011;61379;59.732;30.468;2023-07-16T11:34:14;3.50;;;1.05;;
73168;SDS011;61379;59.732;30.468;2023-07-16T11:36:40;1.67;;;0.75;;
73168;SDS011;61379;59.732;30.468;2023-07-16T11:39:06;2.42;;;0.90;;
73168;SDS011;61379;59.732;30.468;2023-07-16T11:41:32;3.22;;;0.90;;
73168;SDS011;61379;59.732;30.468;2023-07-16T11:43:59;1.63;;;0.80;;
73168;SDS011;61379;59.732;30.468;2023-07-16T11:46:30;2.15;;;1.08;;
73168;SDS011;61379;59.732;30.468;2023-07-16T11:48:56;1.92;;;0.80;;
73168;SDS011;61379;59.732;30.468;2023-07-16T11:51:22;1.15;;;0.57;;
73168;SDS011;61379;59.732;30.468;2023-07-16T11:53:48;1.67;;;0.70;;
73168;SDS011;61379;59.732;30.468;2023-07-16T11:56:14;2.50;;;0.70;;
73168;SDS011;61379;59.732;30.468;2023-07-16T11:58:40;2.45;;;0.75;;
73168;SDS011;61379;59.732;30.468;2023-07-16T12:01:06;3.03;;;1.05;;
73168;SDS011;61379;59.732;30.468;2023-07-16T12:03:33;3.78;;;0.93;;
73168;SDS011;61379;59.732;30.468;2023-07-16T12:05:59;3.85;;;0.90;;
73168;SDS011;61379;59.732;30.468;2023-07-16T12:08:25;2.53;;;0.80;;
73168;SDS011;61379;59.732;30.468;2023-07-16T12:10:51;4.38;;;1.48;;
73168;SDS011;61379;59.732;30.468;2023-07-16T12:13:17;3.00;;;1.55;;
73168;SDS011;61379;59.732;30.468;2023-07-16T12:15:43;2.00;;;1.67;;
73168;SDS011;61379;59.732;30.468;2023-07-16T12:18:09;1.90;;;0.70;;
73168;SDS011;61379;59.732;30.468;2023-07-16T12:20:36;5.55;;;1.88;;
73168;SDS011;61379;59.732;30.468;2023-07-16T12:23:02;6.50;;;0.90;;
73168;SDS011;61379;59.732;30.468;2023-07-16T12:25:28;2.17;;;1.27;;
73168;SDS011;61379;59.732;30.468;2023-07-16T12:27:54;1.52;;;0.70;;
73168;SDS011;61379;59.732;30.468;2023-07-16T12:30:23;1.15;;;0.60;;
73168;SDS011;61379;59.732;30.468;2023-07-16T12:32:49;2.40;;;1.13;;
73168;SDS011;61379;59.732;30.468;2023-07-16T12:35:15;2.25;;;0.98;;
73168;SDS011;61379;59.732;30.468;2023-07-16T12:37:42;2.00;;;0.77;;
73168;SDS011;61379;59.732;30.468;2023-07-16T12:40:08;6.05;;;1.08;;
73168;SDS011;61379;59.732;30.468;2023-07-16T12:42:34;2.30;;;0.82;;
73168;SDS011;61379;59.732;30.468;2023-07-16T12:45:00;2.58;;;0.82;;
73168;SDS011;61379;59.732;30.468;2023-07-16T12:47:26;4.00;;;2.33;;
73168;SDS011;61379;59.732;30.468;2023-07-16T12:49:52;2.60;;;0.93;;
73168;SDS011;61379;59.732;30.468;2023-07-16T12:52:19;1.67;;;0.70;;
73168;SDS011;61379;59.732;30.468;2023-07-16T12:54:45;2.72;;;0.90;;
73168;SDS011;61379;59.732;30.468;2023-07-16T12:57:11;2.13;;;1.02;;
73168;SDS011;61379;59.732;30.468;2023-07-16T12:59:37;2.38;;;1.20;;
73168;SDS011;61379;59.732;30.468;2023-07-16T13:02:03;1.88;;;1.10;;
73168;SDS011;61379;59.732;30.468;2023-07-16T13:04:30;3.20;;;1.48;;
73168;SDS011;61379;59.732;30.468;2023-07-16T13:06:56;3.53;;;1.40;;
73168;SDS011;61379;59.732;30.468;2023-07-16T13:09:22;2.05;;;0.80;;
73168;SDS011;61379;59.732;30.468;2023-07-16T13:11:49;2.58;;;1.33;;
73168;SDS011;61379;59.732;30.468;2023-07-16T13:14:16;5.55;;;1.52;;
73168;SDS011;61379;59.732;30.468;2023-07-16T13:16:42;5.50;;;1.75;;
73168;SDS011;61379;59.732;30.468;2023-07-16T13:19:08;8.35;;;7.57;;
73168;SDS011;61379;59.732;30.468;2023-07-16T13:21:34;8.82;;;8.23;;
73168;SDS011;61379;59.732;30.468;2023-07-16T13:24:00;7.68;;;7.18;;
73168;SDS011;61379;59.732;30.468;2023-07-16T13:26:26;8.45;;;7.85;;
73168;SDS011;61379;59.732;30.468;2023-07-16T13:28:53;6.68;;;4.90;;
73168;SDS011;61379;59.732;30.468;2023-07-16T13:31:19;8.77;;;7.97;;
73168;SDS011;61379;59.732;30.468;2023-07-16T13:33:45;8.52;;;7.93;;
73168;SDS011;61379;59.732;30.468;2023-07-16T13:36:11;9.07;;;8.38;;
73168;SDS011;61379;59.732;30.468;2023-07-16T13:38:37;8.45;;;7.78;;
73168;SDS011;61379;59.732;30.468;2023-07-16T13:41:03;8.68;;;8.02;;
73168;SDS011;61379;59.732;30.468;2023-07-16T13:43:29;8.65;;;8.15;;
73168;SDS011;61379;59.732;30.468;2023-07-16T13:45:56;8.07;;;7.47;;
73168;SDS011;61379;59.732;30.468;2023-07-16T13:48:22;9.55;;;8.68;;
73168;SDS011;61379;59.732;30.468;2023-07-16T13:50:48;8.35;;;7.75;;
73168;SDS011;61379;59.732;30.468;2023-07-16T13:53:14;8.48;;;7.88;;
73168;SDS011;61379;59.732;30.468;2023-07-16T13:55:40;9.80;;;9.20;;
73168;SDS011;61379;59.732;30.468;2023-07-16T13:58:06;8.32;;;7.82;;
73168;SDS011;61379;59.732;30.468;2023-07-16T14:00:32;9.00;;;8.30;;
73168;SDS011;61379;59.732;30.468;2023-07-16T14:02:59;9.52;;;8.80;;
73168;SDS011;61379;59.732;30.468;2023-07-16T14:05:25;8.60;;;8.00;;
73168;SDS011;61379;59.732;30.468;2023-07-16T14:07:52;9.50;;;8.65;;
73168;SDS011;61379;59.732;30.468;2023-07-16T14:10:19;9.75;;;8.85;;
73168;SDS011;61379;59.732;30.468;2023-07-16T14:12:45;6.07;;;5.47;;
73168;SDS011;61379;59.732;30.468;2023-07-16T14:15:11;7.38;;;6.68;;
73168;SDS011;61379;59.732;30.468;2023-07-16T14:17:37;8.10;;;7.50;;
73168;SDS011;61379;59.732;30.468;2023-07-16T14:20:04;9.02;;;8.43;;
73168;SDS011;61379;59.732;30.468;2023-07-16T14:22:31;8.32;;;7.72;;
73168;SDS011;61379;59.732;30.468;2023-07-16T14:24:57;8.52;;;8.02;;
73168;SDS011;61379;59.732;30.468;2023-07-16T14:27:23;8.32;;;7.68;;
73168;SDS011;61379;59.732;30.468;2023-07-16T14:29:50;8.32;;;7.72;;